sensor_id;sensor_type;location;lat;lon;timestamp;P1;durP1;ratioP1;P2;durP2;ratioP2
51718;SDS011;37795;53.236;5.704;2023-07-09T00:01:50;0.20;;;0.20;;
51718;SDS011;37795;53.236;5.704;2023-07-09T00:04:16;0.20;;;0.20;;
51718;SDS011;37795;53.236;5.704;2023-07-09T00:06:42;0.35;;;0.35;;
51718;SDS011;37795;53.236;5.704;2023-07-09T00:09:12;0.20;;;0.20;;
51718;SDS011;37795;53.236;5.704;2023-07-09T00:11:43;0.20;;;0.20;;
51718;SDS011;37795;53.236;5.704;2023-07-09T00:14:09;0.50;;;0.50;;
51718;SDS011;37795;53.236;5.704;2023-07-09T00:16:36;0.30;;;0.30;;
51718;SDS011;37795;53.236;5.704;2023-07-09T00:19:03;0.37;;;0.37;;
51718;SDS011;37795;53.236;5.704;2023-07-09T00:21:30;0.38;;;0.38;;
51718;SDS011;37795;53.236;5.704;2023-07-09T00:23:59;0.25;;;0.25;;
51718;SDS011;37795;53.236;5.704;2023-07-09T00:26:30;0.35;;;0.30;;
51718;SDS011;37795;53.236;5.704;2023-07-09T00:28:57;0.38;;;0.35;;
51718;SDS011;37795;53.236;5.704;2023-07-09T00:31:26;0.32;;;0.32;;
51718;SDS011;37795;53.236;5.704;2023-07-09T00:33:51;0.20;;;0.20;;
51718;SDS011;37795;53.236;5.704;2023-07-09T00:36:19;0.30;;;0.30;;
51718;SDS011;37795;53.236;5.704;2023-07-09T00:38:56;0.60;;;0.60;;
51718;SDS011;37795;53.236;5.704;2023-07-09T00:41:24;0.22;;;0.22;;
51718;SDS011;37795;53.236;5.704;2023-07-09T00:43:51;0.40;;;0.40;;
51718;SDS011;37795;53.236;5.704;2023-07-09T00:48:52;0.40;;;0.40;;
51718;SDS011;37795;53.236;5.704;2023-07-09T00:51:25;0.47;;;0.47;;
51718;SDS011;37795;53.236;5.704;2023-07-09T00:53:54;0.30;;;0.30;;
51718;SDS011;37795;53.236;5.704;2023-07-09T00:56:33;0.60;;;0.52;;
51718;SDS011;37795;53.236;5.704;2023-07-09T00:59:07;0.70;;;0.55;;
51718;SDS011;37795;53.236;5.704;2023-07-09T01:01:38;0.65;;;0.65;;
51718;SDS011;37795;53.236;5.704;2023-07-09T01:04:05;0.40;;;0.40;;
51718;SDS011;37795;53.236;5.704;2023-07-09T01:06:37;0.27;;;0.27;;
51718;SDS011;37795;53.236;5.704;2023-07-09T01:09:09;0.30;;;0.30;;
51718;SDS011;37795;53.236;5.704;2023-07-09T01:11:35;0.55;;;0.55;;
51718;SDS011;37795;53.236;5.704;2023-07-09T01:14:03;0.30;;;0.30;;
51718;SDS011;37795;53.236;5.704;2023-07-09T01:16:34;0.30;;;0.30;;
51718;SDS011;37795;53.236;5.704;2023-07-09T01:19:03;0.20;;;0.20;;
51718;SDS011;37795;53.236;5.704;2023-07-09T01:21:30;0.45;;;0.35;;
51718;SDS011;37795;53.236;5.704;2023-07-09T01:23:57;0.40;;;0.40;;
51718;SDS011;37795;53.236;5.704;2023-07-09T01:26:25;0.30;;;0.30;;
51718;SDS011;37795;53.236;5.704;2023-07-09T01:28:53;0.30;;;0.30;;
51718;SDS011;37795;53.236;5.704;2023-07-09T01:31:19;0.60;;;0.60;;
51718;SDS011;37795;53.236;5.704;2023-07-09T01:33:48;0.40;;;0.40;;
51718;SDS011;37795;53.236;5.704;2023-07-09T01:36:18;0.50;;;0.50;;
51718;SDS011;37795;53.236;5.704;2023-07-09T01:38:48;0.57;;;0.45;;
51718;SDS011;37795;53.236;5.704;2023-07-09T01:41:15;0.30;;;0.30;;
51718;SDS011;37795;53.236;5.704;2023-07-09T01:43:42;0.50;;;0.50;;
51718;SDS011;37795;53.236;5.704;2023-07-09T01:46:09;0.20;;;0.20;;
51718;SDS011;37795;53.236;5.704;2023-07-09T01:48:37;0.30;;;0.30;;
51718;SDS011;37795;53.236;5.704;2023-07-09T01:51:10;0.20;;;0.20;;
51718;SDS011;37795;53.236;5.704;2023-07-09T01:53:37;0.20;;;0.20;;
51718;SDS011;37795;53.236;5.704;2023-07-09T01:56:04;0.20;;;0.20;;
51718;SDS011;37795;53.236;5.704;2023-07-09T01:58:32;0.40;;;0.40;;
51718;SDS011;37795;53.236;5.704;2023-07-09T02:00:59;0.10;;;0.10;;
51718;SDS011;37795;53.236;5.704;2023-07-09T02:03:25;0.20;;;0.20;;
51718;SDS011;37795;53.236;5.704;2023-07-09T02:05:52;0.30;;;0.30;;
51718;SDS011;37795;53.236;5.704;2023-07-09T02:08:18;0.20;;;0.20;;
51718;SDS011;37795;53.236;5.704;2023-07-09T02:10:45;0.30;;;0.30;;
51718;SDS011;37795;53.236;5.704;2023-07-09T02:13:14;0.20;;;0.20;;
51718;SDS011;37795;53.236;5.704;2023-07-09T02:15:39;0.27;;;0.27;;
51718;SDS011;37795;53.236;5.704;2023-07-09T02:18:08;0.30;;;0.30;;
51718;SDS011;37795;53.236;5.704;2023-07-09T02:20:35;0.35;;;0.35;;
51718;SDS011;37795;53.236;5.704;2023-07-09T02:23:01;0.20;;;0.20;;
51718;SDS011;37795;53.236;5.704;2023-07-09T02:25:27;0.30;;;0.30;;
51718;SDS011;37795;53.236;5.704;2023-07-09T02:27:53;0.40;;;0.40;;
51718;SDS011;37795;53.236;5.704;2023-07-09T02:30:19;0.30;;;0.30;;
51718;SDS011;37795;53.236;5.704;2023-07-09T02:32:44;0.40;;;0.40;;
51718;SDS011;37795;53.236;5.704;2023-07-09T02:35:10;0.30;;;0.30;;
51718;SDS011;37795;53.236;5.704;2023-07-09T02:37:36;0.43;;;0.43;;
51718;SDS011;37795;53.236;5.704;2023-07-09T02:40:03;0.35;;;0.35;;
51718;SDS011;37795;53.236;5.704;2023-07-09T02:42:29;0.90;;;0.60;;
51718;SDS011;37795;53.236;5.704;2023-07-09T02:44:55;0.50;;;0.50;;
51718;SDS011;37795;53.236;5.704;2023-07-09T02:47:21;0.30;;;0.30;;
51718;SDS011;37795;53.236;5.704;2023-07-09T02:49:47;0.40;;;0.40;;
51718;SDS011;37795;53.236;5.704;2023-07-09T02:52:12;0.30;;;0.30;;
51718;SDS011;37795;53.236;5.704;2023-07-09T02:54:38;0.30;;;0.30;;
51718;SDS011;37795;53.236;5.704;2023-07-09T02:57:04;0.40;;;0.40;;
51718;SDS011;37795;53.236;5.704;2023-07-09T02:59:30;0.32;;;0.32;;
51718;SDS011;37795;53.236;5.704;2023-07-09T03:01:58;0.25;;;0.22;;
51718;SDS011;37795;53.236;5.704;2023-07-09T03:04:25;0.40;;;0.40;;
51718;SDS011;37795;53.236;5.704;2023-07-09T03:06:51;0.30;;;0.30;;
51718;SDS011;37795;53.236;5.704;2023-07-09T03:09:17;0.68;;;0.68;;
51718;SDS011;37795;53.236;5.704;2023-07-09T03:11:43;0.30;;;0.30;;
51718;SDS011;37795;53.236;5.704;2023-07-09T03:14:09;0.30;;;0.30;;
51718;SDS011;37795;53.236;5.704;2023-07-09T03:16:35;0.20;;;0.20;;
51718;SDS011;37795;53.236;5.704;2023-07-09T03:19:01;0.30;;;0.30;;
51718;SDS011;37795;53.236;5.704;2023-07-09T03:21:28;0.22;;;0.22;;
51718;SDS011;37795;53.236;5.704;2023-07-09T03:23:54;0.30;;;0.30;;
51718;SDS011;37795;53.236;5.704;2023-07-09T03:26:20;0.20;;;0.20;;
51718;SDS011;37795;53.236;5.704;2023-07-09T03:28:46;1.02;;;0.52;;
51718;SDS011;37795;53.236;5.704;2023-07-09T03:31:12;0.37;;;0.37;;
51718;SDS011;37795;53.236;5.704;2023-07-09T03:33:38;0.40;;;0.40;;
51718;SDS011;37795;53.236;5.704;2023-07-09T03:36:04;0.55;;;0.50;;
51718;SDS011;37795;53.236;5.704;2023-07-09T03:38:30;0.40;;;0.40;;
51718;SDS011;37795;53.236;5.704;2023-07-09T03:40:56;0.50;;;0.50;;
51718;SDS011;37795;53.236;5.704;2023-07-09T03:53:07;0.30;;;0.30;;
51718;SDS011;37795;53.236;5.704;2023-07-09T03:55:33;0.88;;;0.63;;
51718;SDS011;37795;53.236;5.704;2023-07-09T03:57:58;0.47;;;0.47;;
51718;SDS011;37795;53.236;5.704;2023-07-09T04:00:24;0.40;;;0.40;;
51718;SDS011;37795;53.236;5.704;2023-07-09T04:02:50;0.57;;;0.50;;
51718;SDS011;37795;53.236;5.704;2023-07-09T04:05:16;0.70;;;0.52;;
51718;SDS011;37795;53.236;5.704;2023-07-09T04:07:43;1.25;;;1.10;;
51718;SDS011;37795;53.236;5.704;2023-07-09T04:10:09;1.50;;;1.40;;
51718;SDS011;37795;53.236;5.704;2023-07-09T04:12:35;2.20;;;1.23;;
51718;SDS011;37795;53.236;5.704;2023-07-09T04:15:02;1.20;;;1.15;;
51718;SDS011;37795;53.236;5.704;2023-07-09T04:17:29;1.52;;;0.90;;
51718;SDS011;37795;53.236;5.704;2023-07-09T04:19:55;1.27;;;1.17;;
51718;SDS011;37795;53.236;5.704;2023-07-09T04:22:20;1.05;;;0.65;;
51718;SDS011;37795;53.236;5.704;2023-07-09T04:24:46;1.45;;;0.90;;
51718;SDS011;37795;53.236;5.704;2023-07-09T04:27:12;2.13;;;1.48;;
51718;SDS011;37795;53.236;5.704;2023-07-09T04:29:39;1.23;;;0.80;;
51718;SDS011;37795;53.236;5.704;2023-07-09T04:32:11;0.88;;;0.88;;
51718;SDS011;37795;53.236;5.704;2023-07-09T04:34:38;1.48;;;1.23;;
51718;SDS011;37795;53.236;5.704;2023-07-09T04:37:06;0.70;;;0.70;;
51718;SDS011;37795;53.236;5.704;2023-07-09T04:39:32;1.00;;;0.90;;
51718;SDS011;37795;53.236;5.704;2023-07-09T04:41:58;1.10;;;1.00;;
51718;SDS011;37795;53.236;5.704;2023-07-09T04:44:24;0.60;;;0.60;;
51718;SDS011;37795;53.236;5.704;2023-07-09T04:46:50;0.70;;;0.70;;
51718;SDS011;37795;53.236;5.704;2023-07-09T04:49:16;2.28;;;1.92;;
51718;SDS011;37795;53.236;5.704;2023-07-09T04:51:41;1.05;;;0.85;;
51718;SDS011;37795;53.236;5.704;2023-07-09T04:54:07;1.17;;;1.08;;
51718;SDS011;37795;53.236;5.704;2023-07-09T04:56:33;1.05;;;0.85;;
51718;SDS011;37795;53.236;5.704;2023-07-09T04:58:58;1.45;;;1.17;;
51718;SDS011;37795;53.236;5.704;2023-07-09T05:01:24;0.70;;;0.70;;
51718;SDS011;37795;53.236;5.704;2023-07-09T05:03:50;1.50;;;1.23;;
51718;SDS011;37795;53.236;5.704;2023-07-09T05:06:16;2.08;;;1.38;;
51718;SDS011;37795;53.236;5.704;2023-07-09T05:08:41;1.05;;;0.85;;
51718;SDS011;37795;53.236;5.704;2023-07-09T05:11:08;1.00;;;0.95;;
51718;SDS011;37795;53.236;5.704;2023-07-09T05:13:33;1.85;;;1.00;;
51718;SDS011;37795;53.236;5.704;2023-07-09T05:15:59;1.23;;;0.98;;
51718;SDS011;37795;53.236;5.704;2023-07-09T05:18:25;1.10;;;0.85;;
51718;SDS011;37795;53.236;5.704;2023-07-09T05:20:50;1.30;;;0.77;;
51718;SDS011;37795;53.236;5.704;2023-07-09T05:23:16;1.20;;;0.90;;
51718;SDS011;37795;53.236;5.704;2023-07-09T05:25:42;1.27;;;1.13;;
51718;SDS011;37795;53.236;5.704;2023-07-09T05:28:07;1.55;;;1.27;;
51718;SDS011;37795;53.236;5.704;2023-07-09T05:30:33;1.75;;;1.30;;
51718;SDS011;37795;53.236;5.704;2023-07-09T05:32:59;3.80;;;2.80;;
51718;SDS011;37795;53.236;5.704;2023-07-09T05:35:25;1.63;;;1.50;;
51718;SDS011;37795;53.236;5.704;2023-07-09T05:37:52;1.40;;;1.20;;
51718;SDS011;37795;53.236;5.704;2023-07-09T05:40:18;1.33;;;1.23;;
51718;SDS011;37795;53.236;5.704;2023-07-09T05:42:44;1.40;;;1.30;;
51718;SDS011;37795;53.236;5.704;2023-07-09T05:45:09;1.23;;;1.13;;
51718;SDS011;37795;53.236;5.704;2023-07-09T05:47:35;1.00;;;0.90;;
51718;SDS011;37795;53.236;5.704;2023-07-09T05:50:01;2.65;;;1.77;;
51718;SDS011;37795;53.236;5.704;2023-07-09T05:52:28;2.15;;;1.50;;
51718;SDS011;37795;53.236;5.704;2023-07-09T05:54:54;3.00;;;1.70;;
51718;SDS011;37795;53.236;5.704;2023-07-09T05:57:20;1.98;;;1.48;;
51718;SDS011;37795;53.236;5.704;2023-07-09T05:59:46;1.13;;;1.02;;
51718;SDS011;37795;53.236;5.704;2023-07-09T06:02:13;1.38;;;1.23;;
51718;SDS011;37795;53.236;5.704;2023-07-09T06:04:44;4.60;;;2.55;;
51718;SDS011;37795;53.236;5.704;2023-07-09T06:09:36;2.05;;;1.55;;
51718;SDS011;37795;53.236;5.704;2023-07-09T06:12:02;1.63;;;1.52;;
51718;SDS011;37795;53.236;5.704;2023-07-09T06:14:29;1.42;;;1.35;;
51718;SDS011;37795;53.236;5.704;2023-07-09T06:16:56;1.65;;;1.38;;
51718;SDS011;37795;53.236;5.704;2023-07-09T06:19:22;1.15;;;1.05;;
51718;SDS011;37795;53.236;5.704;2023-07-09T06:21:48;1.60;;;0.80;;
51718;SDS011;37795;53.236;5.704;2023-07-09T06:24:13;1.60;;;1.20;;
51718;SDS011;37795;53.236;5.704;2023-07-09T06:26:39;0.82;;;0.70;;
51718;SDS011;37795;53.236;5.704;2023-07-09T06:29:05;1.33;;;1.20;;
51718;SDS011;37795;53.236;5.704;2023-07-09T06:31:31;3.28;;;2.67;;
51718;SDS011;37795;53.236;5.704;2023-07-09T06:33:57;1.75;;;1.65;;
51718;SDS011;37795;53.236;5.704;2023-07-09T06:36:22;3.58;;;1.77;;
51718;SDS011;37795;53.236;5.704;2023-07-09T06:38:48;1.67;;;1.58;;
51718;SDS011;37795;53.236;5.704;2023-07-09T06:41:14;0.90;;;0.90;;
51718;SDS011;37795;53.236;5.704;2023-07-09T06:46:07;4.03;;;2.28;;
51718;SDS011;37795;53.236;5.704;2023-07-09T06:55:20;3.03;;;2.15;;
51718;SDS011;37795;53.236;5.704;2023-07-09T06:57:46;1.40;;;1.30;;
51718;SDS011;37795;53.236;5.704;2023-07-09T07:00:12;2.50;;;1.92;;
51718;SDS011;37795;53.236;5.704;2023-07-09T07:02:38;2.20;;;1.83;;
51718;SDS011;37795;53.236;5.704;2023-07-09T07:05:03;1.83;;;1.55;;
51718;SDS011;37795;53.236;5.704;2023-07-09T07:07:29;1.60;;;1.08;;
51718;SDS011;37795;53.236;5.704;2023-07-09T07:09:55;1.92;;;1.58;;
51718;SDS011;37795;53.236;5.704;2023-07-09T07:12:24;2.78;;;2.53;;
51718;SDS011;37795;53.236;5.704;2023-07-09T07:14:54;1.55;;;1.30;;
51718;SDS011;37795;53.236;5.704;2023-07-09T07:17:21;2.63;;;2.05;;
51718;SDS011;37795;53.236;5.704;2023-07-09T07:19:49;3.50;;;1.83;;
51718;SDS011;37795;53.236;5.704;2023-07-09T07:22:15;2.70;;;1.90;;
51718;SDS011;37795;53.236;5.704;2023-07-09T07:24:41;4.85;;;2.58;;
51718;SDS011;37795;53.236;5.704;2023-07-09T07:27:07;3.10;;;2.75;;
51718;SDS011;37795;53.236;5.704;2023-07-09T07:29:33;4.07;;;2.67;;
51718;SDS011;37795;53.236;5.704;2023-07-09T07:31:59;5.63;;;4.00;;
51718;SDS011;37795;53.236;5.704;2023-07-09T07:34:25;3.17;;;2.95;;
51718;SDS011;37795;53.236;5.704;2023-07-09T07:39:17;4.38;;;3.50;;
51718;SDS011;37795;53.236;5.704;2023-07-09T07:41:43;3.30;;;2.58;;
51718;SDS011;37795;53.236;5.704;2023-07-09T07:44:08;3.92;;;2.67;;
51718;SDS011;37795;53.236;5.704;2023-07-09T07:46:34;3.15;;;2.17;;
51718;SDS011;37795;53.236;5.704;2023-07-09T07:49:00;2.15;;;1.88;;
51718;SDS011;37795;53.236;5.704;2023-07-09T07:51:25;3.30;;;2.50;;
51718;SDS011;37795;53.236;5.704;2023-07-09T07:53:52;4.10;;;2.60;;
51718;SDS011;37795;53.236;5.704;2023-07-09T07:56:18;2.60;;;2.17;;
51718;SDS011;37795;53.236;5.704;2023-07-09T07:58:44;2.53;;;1.90;;
51718;SDS011;37795;53.236;5.704;2023-07-09T08:01:09;2.53;;;1.50;;
51718;SDS011;37795;53.236;5.704;2023-07-09T08:03:35;3.65;;;2.38;;
51718;SDS011;37795;53.236;5.704;2023-07-09T08:06:01;2.63;;;1.80;;
51718;SDS011;37795;53.236;5.704;2023-07-09T08:08:27;3.03;;;2.35;;
51718;SDS011;37795;53.236;5.704;2023-07-09T08:10:59;2.05;;;1.88;;
51718;SDS011;37795;53.236;5.704;2023-07-09T08:13:26;4.03;;;2.67;;
51718;SDS011;37795;53.236;5.704;2023-07-09T08:15:52;7.40;;;3.00;;
51718;SDS011;37795;53.236;5.704;2023-07-09T08:18:18;3.90;;;2.90;;
51718;SDS011;37795;53.236;5.704;2023-07-09T08:20:44;2.38;;;1.52;;
51718;SDS011;37795;53.236;5.704;2023-07-09T08:23:10;2.10;;;1.73;;
51718;SDS011;37795;53.236;5.704;2023-07-09T08:25:35;2.10;;;1.02;;
51718;SDS011;37795;53.236;5.704;2023-07-09T08:28:01;1.40;;;1.30;;
51718;SDS011;37795;53.236;5.704;2023-07-09T08:30:27;1.83;;;1.42;;
51718;SDS011;37795;53.236;5.704;2023-07-09T08:32:53;2.03;;;1.70;;
51718;SDS011;37795;53.236;5.704;2023-07-09T08:35:20;3.83;;;2.45;;
51718;SDS011;37795;53.236;5.704;2023-07-09T08:37:45;2.00;;;1.90;;
51718;SDS011;37795;53.236;5.704;2023-07-09T08:40:15;2.15;;;1.70;;
51718;SDS011;37795;53.236;5.704;2023-07-09T08:42:46;2.75;;;2.42;;
51718;SDS011;37795;53.236;5.704;2023-07-09T08:50:54;1.58;;;1.33;;
51718;SDS011;37795;53.236;5.704;2023-07-09T08:53:45;2.05;;;1.52;;
51718;SDS011;37795;53.236;5.704;2023-07-09T08:56:13;1.48;;;1.13;;
51718;SDS011;37795;53.236;5.704;2023-07-09T08:58:40;1.75;;;1.15;;
51718;SDS011;37795;53.236;5.704;2023-07-09T09:01:13;1.73;;;1.35;;
51718;SDS011;37795;53.236;5.704;2023-07-09T09:03:46;2.00;;;1.38;;
51718;SDS011;37795;53.236;5.704;2023-07-09T09:06:22;0.95;;;0.85;;
51718;SDS011;37795;53.236;5.704;2023-07-09T09:09:12;1.50;;;1.10;;
51718;SDS011;37795;53.236;5.704;2023-07-09T09:14:09;1.00;;;0.77;;
51718;SDS011;37795;53.236;5.704;2023-07-09T09:16:52;1.38;;;1.27;;
51718;SDS011;37795;53.236;5.704;2023-07-09T09:21:54;0.95;;;0.95;;
51718;SDS011;37795;53.236;5.704;2023-07-09T09:25:02;0.70;;;0.70;;
51718;SDS011;37795;53.236;5.704;2023-07-09T09:27:34;0.68;;;0.68;;
51718;SDS011;37795;53.236;5.704;2023-07-09T09:30:00;0.70;;;0.70;;
51718;SDS011;37795;53.236;5.704;2023-07-09T09:32:26;0.52;;;0.52;;
51718;SDS011;37795;53.236;5.704;2023-07-09T09:34:56;0.90;;;0.70;;
51718;SDS011;37795;53.236;5.704;2023-07-09T09:37:28;0.60;;;0.57;;
51718;SDS011;37795;53.236;5.704;2023-07-09T09:39:56;0.68;;;0.50;;
51718;SDS011;37795;53.236;5.704;2023-07-09T09:42:23;0.50;;;0.50;;
51718;SDS011;37795;53.236;5.704;2023-07-09T09:44:50;1.00;;;0.60;;
51718;SDS011;37795;53.236;5.704;2023-07-09T09:47:19;0.40;;;0.40;;
51718;SDS011;37795;53.236;5.704;2023-07-09T09:49:44;0.68;;;0.60;;
51718;SDS011;37795;53.236;5.704;2023-07-09T09:52:14;0.80;;;0.73;;
51718;SDS011;37795;53.236;5.704;2023-07-09T09:54:51;0.80;;;0.80;;
51718;SDS011;37795;53.236;5.704;2023-07-09T09:57:27;1.25;;;1.08;;
51718;SDS011;37795;53.236;5.704;2023-07-09T09:59:55;1.35;;;0.98;;
51718;SDS011;37795;53.236;5.704;2023-07-09T10:02:22;0.70;;;0.70;;
51718;SDS011;37795;53.236;5.704;2023-07-09T10:04:49;1.13;;;0.88;;
51718;SDS011;37795;53.236;5.704;2023-07-09T10:07:36;1.67;;;1.00;;
51718;SDS011;37795;53.236;5.704;2023-07-09T10:10:15;0.93;;;0.93;;
51718;SDS011;37795;53.236;5.704;2023-07-09T10:12:57;1.52;;;1.33;;
51718;SDS011;37795;53.236;5.704;2023-07-09T10:18:39;1.67;;;1.58;;
51718;SDS011;37795;53.236;5.704;2023-07-09T10:23:59;0.90;;;0.90;;
51718;SDS011;37795;53.236;5.704;2023-07-09T10:26:39;1.67;;;1.23;;
51718;SDS011;37795;53.236;5.704;2023-07-09T10:34:38;1.33;;;0.82;;
51718;SDS011;37795;53.236;5.704;2023-07-09T10:40:33;1.27;;;1.02;;
51718;SDS011;37795;53.236;5.704;2023-07-09T10:43:05;1.10;;;0.93;;
51718;SDS011;37795;53.236;5.704;2023-07-09T10:45:39;1.25;;;1.10;;
51718;SDS011;37795;53.236;5.704;2023-07-09T10:55:21;1.00;;;0.73;;
51718;SDS011;37795;53.236;5.704;2023-07-09T10:58:35;6.10;;;1.98;;
51718;SDS011;37795;53.236;5.704;2023-07-09T11:00:56;1.45;;;1.30;;
51718;SDS011;37795;53.236;5.704;2023-07-09T11:03:40;1.17;;;0.70;;
51718;SDS011;37795;53.236;5.704;2023-07-09T11:06:37;1.48;;;1.13;;
51718;SDS011;37795;53.236;5.704;2023-07-09T11:09:04;1.50;;;1.40;;
51718;SDS011;37795;53.236;5.704;2023-07-09T11:11:51;1.63;;;1.35;;
51718;SDS011;37795;53.236;5.704;2023-07-09T11:14:28;1.55;;;1.45;;
51718;SDS011;37795;53.236;5.704;2023-07-09T11:17:04;1.63;;;1.23;;
51718;SDS011;37795;53.236;5.704;2023-07-09T11:19:33;1.00;;;0.93;;
51718;SDS011;37795;53.236;5.704;2023-07-09T13:00:33;1.83;;;1.50;;
51718;SDS011;37795;53.236;5.704;2023-07-09T13:05:25;2.22;;;1.38;;
51718;SDS011;37795;53.236;5.704;2023-07-09T13:07:53;1.10;;;1.05;;
51718;SDS011;37795;53.236;5.704;2023-07-09T13:10:27;0.60;;;0.60;;
51718;SDS011;37795;53.236;5.704;2023-07-09T13:12:55;1.25;;;1.15;;
51718;SDS011;37795;53.236;5.704;2023-07-09T13:18:10;0.88;;;0.88;;
51718;SDS011;37795;53.236;5.704;2023-07-09T13:20:38;0.85;;;0.68;;
51718;SDS011;37795;53.236;5.704;2023-07-09T13:23:09;1.52;;;1.10;;
51718;SDS011;37795;53.236;5.704;2023-07-09T13:25:38;0.63;;;0.50;;
51718;SDS011;37795;53.236;5.704;2023-07-09T13:28:04;1.42;;;1.05;;
51718;SDS011;37795;53.236;5.704;2023-07-09T13:32:56;1.65;;;1.55;;
51718;SDS011;37795;53.236;5.704;2023-07-09T13:35:22;1.50;;;0.90;;
51718;SDS011;37795;53.236;5.704;2023-07-09T13:40:14;1.55;;;0.80;;
51718;SDS011;37795;53.236;5.704;2023-07-09T13:42:41;1.77;;;1.40;;
51718;SDS011;37795;53.236;5.704;2023-07-09T13:45:15;2.67;;;1.75;;
51718;SDS011;37795;53.236;5.704;2023-07-09T13:47:48;1.23;;;0.80;;
51718;SDS011;37795;53.236;5.704;2023-07-09T13:50:15;1.35;;;1.17;;
51718;SDS011;37795;53.236;5.704;2023-07-09T13:52:43;1.23;;;0.80;;
51718;SDS011;37795;53.236;5.704;2023-07-09T13:55:14;0.88;;;0.85;;
51718;SDS011;37795;53.236;5.704;2023-07-09T13:57:43;2.08;;;1.30;;
51718;SDS011;37795;53.236;5.704;2023-07-09T14:00:10;1.20;;;1.10;;
51718;SDS011;37795;53.236;5.704;2023-07-09T14:02:37;1.25;;;1.15;;
51718;SDS011;37795;53.236;5.704;2023-07-09T14:05:06;1.27;;;1.17;;
51718;SDS011;37795;53.236;5.704;2023-07-09T14:07:34;2.65;;;2.45;;
51718;SDS011;37795;53.236;5.704;2023-07-09T14:10:03;2.42;;;1.42;;
51718;SDS011;37795;53.236;5.704;2023-07-09T14:12:31;1.13;;;1.02;;
51718;SDS011;37795;53.236;5.704;2023-07-09T14:17:27;2.17;;;1.65;;
51718;SDS011;37795;53.236;5.704;2023-07-09T14:19:53;2.67;;;1.48;;
51718;SDS011;37795;53.236;5.704;2023-07-09T14:24:56;1.42;;;1.30;;
51718;SDS011;37795;53.236;5.704;2023-07-09T14:27:22;2.50;;;1.52;;
51718;SDS011;37795;53.236;5.704;2023-07-09T14:29:48;2.88;;;2.67;;
51718;SDS011;37795;53.236;5.704;2023-07-09T14:34:59;4.28;;;2.25;;
51718;SDS011;37795;53.236;5.704;2023-07-09T14:37:25;1.20;;;1.10;;
51718;SDS011;37795;53.236;5.704;2023-07-09T14:39:51;1.95;;;1.15;;
51718;SDS011;37795;53.236;5.704;2023-07-09T14:52:15;2.30;;;1.60;;
51718;SDS011;37795;53.236;5.704;2023-07-09T14:57:22;2.13;;;1.92;;
51718;SDS011;37795;53.236;5.704;2023-07-09T14:59:51;1.27;;;0.88;;
51718;SDS011;37795;53.236;5.704;2023-07-09T15:02:39;4.00;;;2.38;;
51718;SDS011;37795;53.236;5.704;2023-07-09T15:05:06;1.88;;;1.27;;
51718;SDS011;37795;53.236;5.704;2023-07-09T15:07:40;1.65;;;1.55;;
51718;SDS011;37795;53.236;5.704;2023-07-09T15:10:05;1.60;;;1.27;;
51718;SDS011;37795;53.236;5.704;2023-07-09T15:12:33;1.10;;;1.00;;
51718;SDS011;37795;53.236;5.704;2023-07-09T15:15:22;1.50;;;1.30;;
51718;SDS011;37795;53.236;5.704;2023-07-09T15:17:46;2.17;;;1.00;;
51718;SDS011;37795;53.236;5.704;2023-07-09T15:20:16;0.82;;;0.82;;
51718;SDS011;37795;53.236;5.704;2023-07-09T15:22:45;0.60;;;0.60;;
51718;SDS011;37795;53.236;5.704;2023-07-09T15:25:12;1.65;;;0.80;;
51718;SDS011;37795;53.236;5.704;2023-07-09T15:27:43;2.97;;;1.10;;
51718;SDS011;37795;53.236;5.704;2023-07-09T15:30:13;1.25;;;0.80;;
51718;SDS011;37795;53.236;5.704;2023-07-09T15:32:44;0.57;;;0.57;;
51718;SDS011;37795;53.236;5.704;2023-07-09T15:35:12;0.43;;;0.43;;
51718;SDS011;37795;53.236;5.704;2023-07-09T15:37:38;0.85;;;0.80;;
51718;SDS011;37795;53.236;5.704;2023-07-09T15:40:05;0.60;;;0.60;;
51718;SDS011;37795;53.236;5.704;2023-07-09T15:42:51;0.93;;;0.70;;
51718;SDS011;37795;53.236;5.704;2023-07-09T15:45:19;1.20;;;1.05;;
51718;SDS011;37795;53.236;5.704;2023-07-09T15:47:45;0.63;;;0.63;;
51718;SDS011;37795;53.236;5.704;2023-07-09T15:50:15;1.05;;;0.75;;
51718;SDS011;37795;53.236;5.704;2023-07-09T15:52:46;1.20;;;1.10;;
51718;SDS011;37795;53.236;5.704;2023-07-09T15:55:22;1.40;;;0.80;;
51718;SDS011;37795;53.236;5.704;2023-07-09T15:57:50;0.90;;;0.80;;
51718;SDS011;37795;53.236;5.704;2023-07-09T16:00:19;0.70;;;0.70;;
51718;SDS011;37795;53.236;5.704;2023-07-09T16:02:48;1.10;;;0.80;;
51718;SDS011;37795;53.236;5.704;2023-07-09T16:05:25;1.20;;;0.80;;
51718;SDS011;37795;53.236;5.704;2023-07-09T16:07:54;1.20;;;0.80;;
51718;SDS011;37795;53.236;5.704;2023-07-09T16:10:22;0.80;;;0.60;;
51718;SDS011;37795;53.236;5.704;2023-07-09T16:12:50;0.52;;;0.50;;
51718;SDS011;37795;53.236;5.704;2023-07-09T16:15:17;0.70;;;0.63;;
51718;SDS011;37795;53.236;5.704;2023-07-09T16:17:45;0.55;;;0.50;;
51718;SDS011;37795;53.236;5.704;2023-07-09T16:20:13;0.33;;;0.30;;
51718;SDS011;37795;53.236;5.704;2023-07-09T16:22:41;0.40;;;0.40;;
51718;SDS011;37795;53.236;5.704;2023-07-09T16:25:13;0.80;;;0.52;;
51718;SDS011;37795;53.236;5.704;2023-07-09T16:27:47;0.40;;;0.40;;
51718;SDS011;37795;53.236;5.704;2023-07-09T16:30:15;0.90;;;0.90;;
51718;SDS011;37795;53.236;5.704;2023-07-09T16:32:43;1.65;;;1.23;;
51718;SDS011;37795;53.236;5.704;2023-07-09T16:35:13;1.85;;;1.25;;
51718;SDS011;37795;53.236;5.704;2023-07-09T16:40:21;2.15;;;1.92;;
51718;SDS011;37795;53.236;5.704;2023-07-09T16:42:49;3.30;;;1.80;;
51718;SDS011;37795;53.236;5.704;2023-07-09T16:47:44;2.08;;;1.88;;
51718;SDS011;37795;53.236;5.704;2023-07-09T16:50:15;1.70;;;1.60;;
51718;SDS011;37795;53.236;5.704;2023-07-09T16:52:46;1.35;;;1.17;;
51718;SDS011;37795;53.236;5.704;2023-07-09T16:55:18;1.63;;;1.35;;
51718;SDS011;37795;53.236;5.704;2023-07-09T16:57:51;3.08;;;1.35;;
51718;SDS011;37795;53.236;5.704;2023-07-09T17:00:23;1.52;;;0.90;;
51718;SDS011;37795;53.236;5.704;2023-07-09T17:02:54;5.18;;;2.78;;
51718;SDS011;37795;53.236;5.704;2023-07-09T17:05:25;2.03;;;1.75;;
51718;SDS011;37795;53.236;5.704;2023-07-09T17:07:51;2.63;;;2.15;;
51718;SDS011;37795;53.236;5.704;2023-07-09T17:12:44;2.25;;;1.63;;
51718;SDS011;37795;53.236;5.704;2023-07-09T17:17:54;3.30;;;1.70;;
51718;SDS011;37795;53.236;5.704;2023-07-09T17:20:20;1.52;;;0.93;;
51718;SDS011;37795;53.236;5.704;2023-07-09T17:22:49;1.45;;;1.15;;
51718;SDS011;37795;53.236;5.704;2023-07-09T17:25:27;2.88;;;1.67;;
51718;SDS011;37795;53.236;5.704;2023-07-09T17:27:53;3.63;;;1.23;;
51718;SDS011;37795;53.236;5.704;2023-07-09T17:30:20;1.77;;;1.67;;
51718;SDS011;37795;53.236;5.704;2023-07-09T17:32:46;1.33;;;1.23;;
51718;SDS011;37795;53.236;5.704;2023-07-09T17:35:12;1.73;;;1.60;;
51718;SDS011;37795;53.236;5.704;2023-07-09T17:37:40;1.70;;;1.60;;
51718;SDS011;37795;53.236;5.704;2023-07-09T17:40:17;3.33;;;1.40;;
51718;SDS011;37795;53.236;5.704;2023-07-09T17:42:44;1.20;;;1.10;;
51718;SDS011;37795;53.236;5.704;2023-07-09T17:45:11;1.65;;;1.30;;
51718;SDS011;37795;53.236;5.704;2023-07-09T17:47:39;2.53;;;1.92;;
51718;SDS011;37795;53.236;5.704;2023-07-09T17:50:20;1.35;;;1.17;;
51718;SDS011;37795;53.236;5.704;2023-07-09T17:52:53;2.10;;;1.90;;
51718;SDS011;37795;53.236;5.704;2023-07-09T17:55:20;1.17;;;1.08;;
51718;SDS011;37795;53.236;5.704;2023-07-09T17:57:52;1.83;;;1.45;;
51718;SDS011;37795;53.236;5.704;2023-07-09T18:00:21;1.95;;;1.27;;
51718;SDS011;37795;53.236;5.704;2023-07-09T18:02:54;0.73;;;0.70;;
51718;SDS011;37795;53.236;5.704;2023-07-09T18:05:27;1.17;;;1.08;;
51718;SDS011;37795;53.236;5.704;2023-07-09T18:07:55;1.08;;;0.98;;
51718;SDS011;37795;53.236;5.704;2023-07-09T18:12:52;0.77;;;0.77;;
51718;SDS011;37795;53.236;5.704;2023-07-09T18:15:27;0.80;;;0.80;;
51718;SDS011;37795;53.236;5.704;2023-07-09T18:20:21;0.70;;;0.70;;